Nearby METAR Reports

 

LIBV - Gioia Del Colle, Italy
Distance from station: ЮЮИ 15km
Актуализирано: 20/10/2018 23:55
NOT Current
Частична облачност
Частична облачност
 Вятър от СЗ
Вятър: СЗ 15 km/h
Температура: 15°C
Точка на оросяване: 12°C
Влажност: 82%
Барометър: 1020 hPa
Clouds: Частична облачност
Visibility: 6 km
2018/10/20 21:55 LIBV 202155Z 31008KT 6000 NSC 15/12 Q1020 RMK SCT SCT250 VIS MIN 6000 WIND THR32 32009KT WIND THR14 31008KT WHT
LIBD - Bari/Palese Macc, Italy
Distance from station: ССЗ 26km
Актуализирано: 21/10/2018 00:50
Тихо и ясно
Тихо и ясно
 Вятър от ЗСЗ
Вятър: ЗСЗ 17 km/h
Температура: 16°C
Точка на оросяване: 12°C
Влажност: 77%
Барометър: 1020 hPa
Метео сводка: Тихо и ясно
Visibility: greater than 10 km
2018/10/20 22:50 LIBD 202250Z 29009KT CAVOK 16/12 Q1020
LIBH - Marina Di Ginosa, Italy
Distance from station: Ю 53km
Актуализирано: 20/10/2018 22:55
NOT Current
Тихо и ясно
Тихо и ясно
 Вятър от ЗСЗ
Вятър: ЗСЗ 6 km/h
Температура: 17°C
Точка на оросяване: 14°C
Влажност: 83%
Барометър: 1018 hPa
Метео сводка: Тихо и ясно
Visibility: greater than 10 km
2018/10/20 20:55 LIBH 202055Z 30003KT CAVOK 17/14 Q1018 RMK SKC QUK / QUL / VIS MAR 10 KM VIS MIN 9999
 
LIBG - Grottaglie(Civ/A, Italy
Distance from station: ЮИ 61km
Актуализирано: 20/10/2018 19:50
NOT Current
Тихо и ясно
Тихо и ясно
 Вятър от С
Вятър: С 17 km/h
Температура: 17°C
Точка на оросяване: 15°C
Влажност: 88%
Барометър: 1018 hPa
Метео сводка: Тихо и ясно
Visibility: greater than 10 km
2018/10/20 17:50 LIBG 201750Z 01009KT CAVOK 17/15 Q1018
LIBR - Brindisi/Casale, Italy
Distance from station: ИЮИ 96km
Актуализирано: 21/10/2018 00:50
Few Clouds
Few Clouds
 Вятър от З
Вятър: З 15 km/h
Температура: 18°C
Точка на оросяване: 16°C
Влажност: 88%
Барометър: 1018 hPa
Clouds: Few Clouds
Visibility: 10 km
Cloud details: Few Clouds 457 m
2018/10/20 22:50 LIBR 202250Z 28008KT 9999 FEW015 18/16 Q1018
LIBA - Amendola (it-Afb, Italy
Distance from station: СЗ 118km
Актуализирано: 19/10/2018 22:55
NOT Current
Частична облачност
Частична облачност
 Вятър от З
Вятър: З 13 km/h
Температура: 15°C
Точка на оросяване: 15°C
Влажност: 100%
Барометър: 1017 hPa
Clouds: Частична облачност
Visibility: 6 km
2018/10/19 20:55 LIBA 192055Z 28007KT 6000 NSC 15/15 Q1017 RMK SKC VIS MIN 6000 WIND THR11 28008KT WIND THR29 /////KT WHT
 
LIBF - Foggia/Gino Lisa, Italy
Distance from station: ЗСЗ 126km
Актуализирано: 20/10/2018 17:50
NOT Current
Тихо и ясно
Тихо и ясно
 Вятър от ССЗ
Вятър: ССЗ 24 km/h
Температура: 20°C
Точка на оросяване: 13°C
Влажност: 64%
Барометър: 1020 hPa
Метео сводка: Тихо и ясно
Visibility: greater than 10 km
2018/10/20 15:50 LIBF 201550Z 34013KT CAVOK 20/13 Q1020
LIBN - Lecce (it-Afb), Italy
Distance from station: ЮИ 132km
Актуализирано: 21/10/2018 00:55
Тихо и ясно
Тихо и ясно
 Вятър от СЗ
Вятър: СЗ 11 km/h
Температура: 16°C
Точка на оросяване: 15°C
Влажност: 94%
Барометър: 1019 hPa
Метео сводка: Тихо и ясно
Visibility: greater than 10 km
2018/10/20 22:55 LIBN 202255Z 32006KT CAVOK 16/15 Q1019 RMK SCT SCT200 VIS MIN 9999 WIND THR14 31006KT WIND THR32 32006KT BLU